sensor_id;sensor_type;location;lat;lon;timestamp;temperature;humidity
2767;DHT22;1391;46.742;11.636;2022-10-16T00:01:21;11.80;99.90
2767;DHT22;1391;46.742;11.636;2022-10-16T00:03:50;11.80;99.90
2767;DHT22;1391;46.742;11.636;2022-10-16T00:06:21;11.80;99.90
2767;DHT22;1391;46.742;11.636;2022-10-16T00:08:49;11.80;99.90
2767;DHT22;1391;46.742;11.636;2022-10-16T00:11:20;11.80;99.90
2767;DHT22;1391;46.742;11.636;2022-10-16T00:13:51;11.70;99.90
2767;DHT22;1391;46.742;11.636;2022-10-16T00:16:21;11.50;99.90
2767;DHT22;1391;46.742;11.636;2022-10-16T00:18:49;12.00;99.90
2767;DHT22;1391;46.742;11.636;2022-10-16T00:21:20;11.80;99.90
2767;DHT22;1391;46.742;11.636;2022-10-16T00:23:51;11.80;99.90
2767;DHT22;1391;46.742;11.636;2022-10-16T00:26:19;11.80;99.90
2767;DHT22;1391;46.742;11.636;2022-10-16T00:28:47;11.80;99.90
2767;DHT22;1391;46.742;11.636;2022-10-16T00:31:15;11.70;99.90
2767;DHT22;1391;46.742;11.636;2022-10-16T00:33:43;11.90;99.90
2767;DHT22;1391;46.742;11.636;2022-10-16T00:36:13;11.90;99.90
2767;DHT22;1391;46.742;11.636;2022-10-16T00:38:42;11.60;99.90
2767;DHT22;1391;46.742;11.636;2022-10-16T00:41:13;11.60;99.90
2767;DHT22;1391;46.742;11.636;2022-10-16T00:43:43;11.60;99.90
2767;DHT22;1391;46.742;11.636;2022-10-16T00:46:16;11.60;99.90
2767;DHT22;1391;46.742;11.636;2022-10-16T00:48:50;11.60;99.90
2767;DHT22;1391;46.742;11.636;2022-10-16T00:51:25;11.90;99.90
2767;DHT22;1391;46.742;11.636;2022-10-16T00:53:55;11.60;99.90
2767;DHT22;1391;46.742;11.636;2022-10-16T00:56:23;11.60;99.90
2767;DHT22;1391;46.742;11.636;2022-10-16T00:58:50;11.60;99.90
2767;DHT22;1391;46.742;11.636;2022-10-16T01:01:18;12.00;99.90
2767;DHT22;1391;46.742;11.636;2022-10-16T01:03:46;11.90;99.90
2767;DHT22;1391;46.742;11.636;2022-10-16T01:06:23;12.20;99.90
2767;DHT22;1391;46.742;11.636;2022-10-16T01:09:02;12.30;99.90
2767;DHT22;1391;46.742;11.636;2022-10-16T01:11:54;11.90;99.90
2767;DHT22;1391;46.742;11.636;2022-10-16T01:14:31;12.20;99.90
2767;DHT22;1391;46.742;11.636;2022-10-16T01:17:06;12.20;99.90
2767;DHT22;1391;46.742;11.636;2022-10-16T01:19:56;12.30;99.90
2767;DHT22;1391;46.742;11.636;2022-10-16T01:22:37;12.20;99.90
2767;DHT22;1391;46.742;11.636;2022-10-16T01:25:14;12.30;99.90
2767;DHT22;1391;46.742;11.636;2022-10-16T01:27:48;12.20;99.90
2767;DHT22;1391;46.742;11.636;2022-10-16T01:30:18;12.30;99.90
2767;DHT22;1391;46.742;11.636;2022-10-16T01:32:52;12.20;99.90
2767;DHT22;1391;46.742;11.636;2022-10-16T01:35:24;12.10;99.90
2767;DHT22;1391;46.742;11.636;2022-10-16T01:37:56;11.90;99.90
2767;DHT22;1391;46.742;11.636;2022-10-16T01:40:27;11.90;99.90
2767;DHT22;1391;46.742;11.636;2022-10-16T01:43:00;12.20;99.90
2767;DHT22;1391;46.742;11.636;2022-10-16T01:45:31;12.30;99.90
2767;DHT22;1391;46.742;11.636;2022-10-16T01:48:01;12.20;99.90
2767;DHT22;1391;46.742;11.636;2022-10-16T01:50:33;12.30;99.90
2767;DHT22;1391;46.742;11.636;2022-10-16T01:53:04;11.80;99.90
2767;DHT22;1391;46.742;11.636;2022-10-16T01:55:35;11.70;99.90
2767;DHT22;1391;46.742;11.636;2022-10-16T01:58:07;11.70;99.90
2767;DHT22;1391;46.742;11.636;2022-10-16T02:00:37;11.90;99.90
2767;DHT22;1391;46.742;11.636;2022-10-16T02:03:06;11.90;99.90
2767;DHT22;1391;46.742;11.636;2022-10-16T02:05:38;11.90;99.90
2767;DHT22;1391;46.742;11.636;2022-10-16T02:08:08;12.20;99.90
2767;DHT22;1391;46.742;11.636;2022-10-16T02:10:36;12.20;99.90
2767;DHT22;1391;46.742;11.636;2022-10-16T02:13:09;12.20;99.90
2767;DHT22;1391;46.742;11.636;2022-10-16T02:15:38;12.20;99.90
2767;DHT22;1391;46.742;11.636;2022-10-16T02:18:07;11.90;99.90
2767;DHT22;1391;46.742;11.636;2022-10-16T02:20:41;11.80;99.90
2767;DHT22;1391;46.742;11.636;2022-10-16T02:23:17;12.30;99.90
2767;DHT22;1391;46.742;11.636;2022-10-16T02:25:50;11.80;99.90
2767;DHT22;1391;46.742;11.636;2022-10-16T02:28:25;11.90;99.90
2767;DHT22;1391;46.742;11.636;2022-10-16T02:30:58;11.80;99.90
2767;DHT22;1391;46.742;11.636;2022-10-16T02:33:29;11.90;99.90
2767;DHT22;1391;46.742;11.636;2022-10-16T02:35:57;11.80;99.90
2767;DHT22;1391;46.742;11.636;2022-10-16T02:38:25;12.20;99.90
2767;DHT22;1391;46.742;11.636;2022-10-16T02:40:53;12.30;99.90
2767;DHT22;1391;46.742;11.636;2022-10-16T02:43:24;12.00;99.90
2767;DHT22;1391;46.742;11.636;2022-10-16T02:45:52;12.20;99.90
2767;DHT22;1391;46.742;11.636;2022-10-16T02:48:20;12.20;99.90
2767;DHT22;1391;46.742;11.636;2022-10-16T02:50:47;12.20;99.90
2767;DHT22;1391;46.742;11.636;2022-10-16T02:53:14;12.20;99.90
2767;DHT22;1391;46.742;11.636;2022-10-16T02:55:42;12.20;99.90
2767;DHT22;1391;46.742;11.636;2022-10-16T02:58:09;12.20;99.90
2767;DHT22;1391;46.742;11.636;2022-10-16T03:00:38;12.20;99.90
2767;DHT22;1391;46.742;11.636;2022-10-16T03:03:05;12.20;99.90
2767;DHT22;1391;46.742;11.636;2022-10-16T03:05:32;12.20;99.90
2767;DHT22;1391;46.742;11.636;2022-10-16T03:08:00;12.20;99.90
2767;DHT22;1391;46.742;11.636;2022-10-16T03:10:28;12.20;99.90
2767;DHT22;1391;46.742;11.636;2022-10-16T03:12:55;12.20;99.90
2767;DHT22;1391;46.742;11.636;2022-10-16T03:15:23;12.20;99.90
2767;DHT22;1391;46.742;11.636;2022-10-16T03:17:52;12.30;99.90
2767;DHT22;1391;46.742;11.636;2022-10-16T03:20:20;12.00;99.90
2767;DHT22;1391;46.742;11.636;2022-10-16T03:22:47;12.30;99.90
2767;DHT22;1391;46.742;11.636;2022-10-16T03:25:15;12.50;99.90
2767;DHT22;1391;46.742;11.636;2022-10-16T03:27:42;12.40;99.90
2767;DHT22;1391;46.742;11.636;2022-10-16T03:30:10;12.10;99.90
2767;DHT22;1391;46.742;11.636;2022-10-16T03:32:38;12.20;99.90
2767;DHT22;1391;46.742;11.636;2022-10-16T03:35:08;12.30;99.90
2767;DHT22;1391;46.742;11.636;2022-10-16T03:37:35;12.10;99.90
2767;DHT22;1391;46.742;11.636;2022-10-16T03:40:04;12.20;99.90
2767;DHT22;1391;46.742;11.636;2022-10-16T03:42:32;12.20;99.90
2767;DHT22;1391;46.742;11.636;2022-10-16T03:45:00;12.20;99.90
2767;DHT22;1391;46.742;11.636;2022-10-16T03:47:27;12.30;99.90
2767;DHT22;1391;46.742;11.636;2022-10-16T03:49:54;12.50;99.90
2767;DHT22;1391;46.742;11.636;2022-10-16T03:52:23;12.40;99.90
2767;DHT22;1391;46.742;11.636;2022-10-16T03:54:51;12.10;99.90
2767;DHT22;1391;46.742;11.636;2022-10-16T03:57:18;12.20;99.90
2767;DHT22;1391;46.742;11.636;2022-10-16T03:59:46;12.30;99.90
2767;DHT22;1391;46.742;11.636;2022-10-16T04:02:18;12.50;99.90
2767;DHT22;1391;46.742;11.636;2022-10-16T04:04:46;12.40;99.90
2767;DHT22;1391;46.742;11.636;2022-10-16T04:07:13;12.10;99.90
2767;DHT22;1391;46.742;11.636;2022-10-16T04:09:42;12.20;99.90
2767;DHT22;1391;46.742;11.636;2022-10-16T04:12:10;12.30;99.90
2767;DHT22;1391;46.742;11.636;2022-10-16T04:14:37;12.20;99.90
2767;DHT22;1391;46.742;11.636;2022-10-16T04:17:04;12.30;99.90
2767;DHT22;1391;46.742;11.636;2022-10-16T04:19:32;12.40;99.90
2767;DHT22;1391;46.742;11.636;2022-10-16T04:21:59;12.20;99.90
2767;DHT22;1391;46.742;11.636;2022-10-16T04:24:26;12.20;99.90
2767;DHT22;1391;46.742;11.636;2022-10-16T04:26:55;12.20;99.90
2767;DHT22;1391;46.742;11.636;2022-10-16T04:29:23;12.30;99.90
2767;DHT22;1391;46.742;11.636;2022-10-16T04:31:51;12.10;99.90
2767;DHT22;1391;46.742;11.636;2022-10-16T04:34:18;12.30;99.90
2767;DHT22;1391;46.742;11.636;2022-10-16T04:36:47;12.10;99.90
2767;DHT22;1391;46.742;11.636;2022-10-16T04:39:15;12.20;99.90
2767;DHT22;1391;46.742;11.636;2022-10-16T04:41:43;12.30;99.90
2767;DHT22;1391;46.742;11.636;2022-10-16T04:44:12;12.20;99.90
2767;DHT22;1391;46.742;11.636;2022-10-16T04:46:40;12.30;99.90
2767;DHT22;1391;46.742;11.636;2022-10-16T04:49:07;12.10;99.90
2767;DHT22;1391;46.742;11.636;2022-10-16T04:51:34;12.20;99.90
2767;DHT22;1391;46.742;11.636;2022-10-16T04:54:02;12.40;99.90
2767;DHT22;1391;46.742;11.636;2022-10-16T04:56:29;12.20;99.90
2767;DHT22;1391;46.742;11.636;2022-10-16T04:58:56;12.30;99.90
2767;DHT22;1391;46.742;11.636;2022-10-16T05:01:25;12.20;99.90
2767;DHT22;1391;46.742;11.636;2022-10-16T05:03:52;12.10;99.90
2767;DHT22;1391;46.742;11.636;2022-10-16T05:06:20;12.20;99.90
2767;DHT22;1391;46.742;11.636;2022-10-16T05:08:47;12.00;99.90
2767;DHT22;1391;46.742;11.636;2022-10-16T05:11:15;12.10;99.90
2767;DHT22;1391;46.742;11.636;2022-10-16T05:13:42;12.20;99.90
2767;DHT22;1391;46.742;11.636;2022-10-16T05:16:10;12.10;99.90
2767;DHT22;1391;46.742;11.636;2022-10-16T05:18:39;12.20;99.90
2767;DHT22;1391;46.742;11.636;2022-10-16T05:21:07;12.30;99.90
2767;DHT22;1391;46.742;11.636;2022-10-16T05:23:34;12.20;99.90
2767;DHT22;1391;46.742;11.636;2022-10-16T05:26:02;12.40;99.90
2767;DHT22;1391;46.742;11.636;2022-10-16T05:28:30;12.30;99.90
2767;DHT22;1391;46.742;11.636;2022-10-16T05:30:58;12.20;99.90
2767;DHT22;1391;46.742;11.636;2022-10-16T05:33:26;12.20;99.90
2767;DHT22;1391;46.742;11.636;2022-10-16T05:35:55;12.30;99.90
2767;DHT22;1391;46.742;11.636;2022-10-16T05:38:22;12.20;99.90
2767;DHT22;1391;46.742;11.636;2022-10-16T05:40:53;12.40;99.90
2767;DHT22;1391;46.742;11.636;2022-10-16T05:43:20;12.20;99.90
2767;DHT22;1391;46.742;11.636;2022-10-16T05:45:54;12.30;99.90
2767;DHT22;1391;46.742;11.636;2022-10-16T05:48:22;12.10;99.90
2767;DHT22;1391;46.742;11.636;2022-10-16T05:50:58;11.90;99.90
2767;DHT22;1391;46.742;11.636;2022-10-16T05:53:27;12.30;99.90
2767;DHT22;1391;46.742;11.636;2022-10-16T05:55:56;12.30;99.90
2767;DHT22;1391;46.742;11.636;2022-10-16T05:58:25;12.20;99.90
2767;DHT22;1391;46.742;11.636;2022-10-16T06:00:55;12.30;99.90
2767;DHT22;1391;46.742;11.636;2022-10-16T06:03:27;11.80;99.90
2767;DHT22;1391;46.742;11.636;2022-10-16T06:05:55;11.60;99.90
2767;DHT22;1391;46.742;11.636;2022-10-16T06:08:23;12.20;99.90
2767;DHT22;1391;46.742;11.636;2022-10-16T06:11:00;12.30;99.90
2767;DHT22;1391;46.742;11.636;2022-10-16T06:13:29;12.20;99.90
2767;DHT22;1391;46.742;11.636;2022-10-16T06:15:57;12.30;99.90
2767;DHT22;1391;46.742;11.636;2022-10-16T06:18:26;12.00;99.90
2767;DHT22;1391;46.742;11.636;2022-10-16T06:20:56;12.30;99.90
2767;DHT22;1391;46.742;11.636;2022-10-16T06:23:25;12.10;99.90
2767;DHT22;1391;46.742;11.636;2022-10-16T06:25:52;12.20;99.90
2767;DHT22;1391;46.742;11.636;2022-10-16T06:28:20;12.20;99.90
2767;DHT22;1391;46.742;11.636;2022-10-16T06:30:47;12.30;99.90
2767;DHT22;1391;46.742;11.636;2022-10-16T06:33:15;12.40;99.90
2767;DHT22;1391;46.742;11.636;2022-10-16T06:35:42;12.50;99.90
2767;DHT22;1391;46.742;11.636;2022-10-16T06:38:11;12.30;99.90
2767;DHT22;1391;46.742;11.636;2022-10-16T06:40:39;12.30;99.90
2767;DHT22;1391;46.742;11.636;2022-10-16T06:43:06;12.40;99.90
2767;DHT22;1391;46.742;11.636;2022-10-16T06:45:34;12.80;99.90
2767;DHT22;1391;46.742;11.636;2022-10-16T06:48:02;12.70;99.90
2767;DHT22;1391;46.742;11.636;2022-10-16T06:50:29;12.70;99.90
2767;DHT22;1391;46.742;11.636;2022-10-16T06:52:57;12.70;99.90
2767;DHT22;1391;46.742;11.636;2022-10-16T06:55:26;12.60;99.90
2767;DHT22;1391;46.742;11.636;2022-10-16T06:57:54;12.70;99.90
2767;DHT22;1391;46.742;11.636;2022-10-16T07:00:21;13.10;99.90
2767;DHT22;1391;46.742;11.636;2022-10-16T07:02:50;12.70;99.90
2767;DHT22;1391;46.742;11.636;2022-10-16T07:05:17;13.00;99.90
2767;DHT22;1391;46.742;11.636;2022-10-16T07:07:44;13.00;99.90
2767;DHT22;1391;46.742;11.636;2022-10-16T07:10:12;12.90;99.90
2767;DHT22;1391;46.742;11.636;2022-10-16T07:12:40;13.20;99.90
2767;DHT22;1391;46.742;11.636;2022-10-16T07:15:10;13.20;99.90
2767;DHT22;1391;46.742;11.636;2022-10-16T07:17:38;13.30;99.90
2767;DHT22;1391;46.742;11.636;2022-10-16T07:20:06;13.20;99.90
2767;DHT22;1391;46.742;11.636;2022-10-16T07:22:34;13.20;99.90
2767;DHT22;1391;46.742;11.636;2022-10-16T07:25:01;13.30;99.90
2767;DHT22;1391;46.742;11.636;2022-10-16T07:27:29;13.10;99.90
2767;DHT22;1391;46.742;11.636;2022-10-16T07:29:57;13.30;99.90
2767;DHT22;1391;46.742;11.636;2022-10-16T07:32:24;13.20;99.90
2767;DHT22;1391;46.742;11.636;2022-10-16T07:34:52;13.20;99.90
2767;DHT22;1391;46.742;11.636;2022-10-16T07:37:21;13.20;99.90
2767;DHT22;1391;46.742;11.636;2022-10-16T07:39:48;13.30;99.90
2767;DHT22;1391;46.742;11.636;2022-10-16T07:42:16;13.20;99.90
2767;DHT22;1391;46.742;11.636;2022-10-16T07:44:43;13.20;99.90
2767;DHT22;1391;46.742;11.636;2022-10-16T07:47:12;13.20;99.90
2767;DHT22;1391;46.742;11.636;2022-10-16T07:49:39;13.60;99.90
2767;DHT22;1391;46.742;11.636;2022-10-16T07:52:07;13.70;99.90
2767;DHT22;1391;46.742;11.636;2022-10-16T07:54:34;13.70;99.90
2767;DHT22;1391;46.742;11.636;2022-10-16T07:57:02;13.70;99.90
2767;DHT22;1391;46.742;11.636;2022-10-16T07:59:29;13.70;99.90
2767;DHT22;1391;46.742;11.636;2022-10-16T08:01:57;14.00;99.90
2767;DHT22;1391;46.742;11.636;2022-10-16T08:04:25;13.70;99.90
2767;DHT22;1391;46.742;11.636;2022-10-16T08:06:53;14.40;99.90
2767;DHT22;1391;46.742;11.636;2022-10-16T08:09:20;13.80;99.90
2767;DHT22;1391;46.742;11.636;2022-10-16T08:11:47;14.10;99.90
2767;DHT22;1391;46.742;11.636;2022-10-16T08:14:14;14.20;99.90
2767;DHT22;1391;46.742;11.636;2022-10-16T08:16:42;14.50;99.90
2767;DHT22;1391;46.742;11.636;2022-10-16T08:19:10;14.50;99.90
2767;DHT22;1391;46.742;11.636;2022-10-16T08:21:38;14.40;99.90
2767;DHT22;1391;46.742;11.636;2022-10-16T08:24:06;14.60;99.90
2767;DHT22;1391;46.742;11.636;2022-10-16T08:26:34;14.40;99.90
2767;DHT22;1391;46.742;11.636;2022-10-16T08:29:01;14.60;99.90
2767;DHT22;1391;46.742;11.636;2022-10-16T08:31:29;14.50;99.90
2767;DHT22;1391;46.742;11.636;2022-10-16T08:33:56;14.30;99.90
2767;DHT22;1391;46.742;11.636;2022-10-16T08:36:23;14.70;99.90
2767;DHT22;1391;46.742;11.636;2022-10-16T08:38:52;14.60;99.90
2767;DHT22;1391;46.742;11.636;2022-10-16T08:41:45;14.70;99.90
2767;DHT22;1391;46.742;11.636;2022-10-16T08:47:49;15.60;99.90
2767;DHT22;1391;46.742;11.636;2022-10-16T08:50:23;16.10;99.90
2767;DHT22;1391;46.742;11.636;2022-10-16T08:52:54;16.80;98.50
2767;DHT22;1391;46.742;11.636;2022-10-16T08:55:33;17.40;93.90
2767;DHT22;1391;46.742;11.636;2022-10-16T08:58:11;17.70;90.80
2767;DHT22;1391;46.742;11.636;2022-10-16T09:00:40;18.10;90.00
2767;DHT22;1391;46.742;11.636;2022-10-16T09:03:17;17.10;87.60
2767;DHT22;1391;46.742;11.636;2022-10-16T09:06:04;17.40;88.80
2767;DHT22;1391;46.742;11.636;2022-10-16T09:08:46;17.40;89.00
2767;DHT22;1391;46.742;11.636;2022-10-16T09:11:25;17.20;85.40
2767;DHT22;1391;46.742;11.636;2022-10-16T09:14:10;18.50;82.90
2767;DHT22;1391;46.742;11.636;2022-10-16T09:16:50;18.00;83.50
2767;DHT22;1391;46.742;11.636;2022-10-16T09:19:24;18.50;83.80
2767;DHT22;1391;46.742;11.636;2022-10-16T09:21:56;18.60;78.60
2767;DHT22;1391;46.742;11.636;2022-10-16T09:24:26;17.90;78.50
2767;DHT22;1391;46.742;11.636;2022-10-16T09:26:55;18.40;75.40
2767;DHT22;1391;46.742;11.636;2022-10-16T09:29:23;18.50;75.00
2767;DHT22;1391;46.742;11.636;2022-10-16T09:31:52;19.10;73.90
2767;DHT22;1391;46.742;11.636;2022-10-16T09:34:27;19.00;72.00
2767;DHT22;1391;46.742;11.636;2022-10-16T09:37:01;19.10;71.60
2767;DHT22;1391;46.742;11.636;2022-10-16T09:39:31;19.10;69.00
2767;DHT22;1391;46.742;11.636;2022-10-16T09:42:15;19.10;67.80
2767;DHT22;1391;46.742;11.636;2022-10-16T09:44:47;19.90;68.50
2767;DHT22;1391;46.742;11.636;2022-10-16T09:47:19;19.70;66.00
2767;DHT22;1391;46.742;11.636;2022-10-16T09:49:52;19.80;63.40
2767;DHT22;1391;46.742;11.636;2022-10-16T09:52:21;19.30;66.80
2767;DHT22;1391;46.742;11.636;2022-10-16T09:54:51;19.70;63.00
2767;DHT22;1391;46.742;11.636;2022-10-16T09:57:21;19.70;65.20
2767;DHT22;1391;46.742;11.636;2022-10-16T09:59:51;19.90;63.30
2767;DHT22;1391;46.742;11.636;2022-10-16T10:02:23;19.90;62.40
2767;DHT22;1391;46.742;11.636;2022-10-16T10:04:55;19.80;62.10
2767;DHT22;1391;46.742;11.636;2022-10-16T10:07:25;19.70;62.60
2767;DHT22;1391;46.742;11.636;2022-10-16T10:09:55;20.00;59.60
2767;DHT22;1391;46.742;11.636;2022-10-16T10:12:26;19.70;58.00
2767;DHT22;1391;46.742;11.636;2022-10-16T10:14:56;19.80;57.20
2767;DHT22;1391;46.742;11.636;2022-10-16T10:17:26;19.70;55.60
2767;DHT22;1391;46.742;11.636;2022-10-16T10:19:56;19.80;53.00
2767;DHT22;1391;46.742;11.636;2022-10-16T10:22:31;20.40;54.60
2767;DHT22;1391;46.742;11.636;2022-10-16T10:25:35;21.40;53.30
2767;DHT22;1391;46.742;11.636;2022-10-16T10:28:27;22.00;50.00
2767;DHT22;1391;46.742;11.636;2022-10-16T10:31:05;21.20;47.50
2767;DHT22;1391;46.742;11.636;2022-10-16T10:33:41;20.90;48.30
2767;DHT22;1391;46.742;11.636;2022-10-16T10:36:32;20.30;48.80
2767;DHT22;1391;46.742;11.636;2022-10-16T10:39:05;20.30;51.50
2767;DHT22;1391;46.742;11.636;2022-10-16T10:41:59;19.80;49.90
2767;DHT22;1391;46.742;11.636;2022-10-16T10:44:42;19.80;49.80
2767;DHT22;1391;46.742;11.636;2022-10-16T10:47:30;20.40;48.70
2767;DHT22;1391;46.742;11.636;2022-10-16T10:50:16;20.90;47.30
2767;DHT22;1391;46.742;11.636;2022-10-16T10:52:57;21.20;47.00
2767;DHT22;1391;46.742;11.636;2022-10-16T10:55:33;20.50;46.10
2767;DHT22;1391;46.742;11.636;2022-10-16T10:58:27;21.00;48.20
2767;DHT22;1391;46.742;11.636;2022-10-16T11:01:09;21.30;46.20
2767;DHT22;1391;46.742;11.636;2022-10-16T11:03:59;22.20;49.50
2767;DHT22;1391;46.742;11.636;2022-10-16T11:07:00;22.00;47.60
2767;DHT22;1391;46.742;11.636;2022-10-16T11:09:33;21.70;42.70
2767;DHT22;1391;46.742;11.636;2022-10-16T11:12:06;21.00;44.80
2767;DHT22;1391;46.742;11.636;2022-10-16T11:14:40;21.00;45.80
2767;DHT22;1391;46.742;11.636;2022-10-16T11:17:17;21.20;44.60
2767;DHT22;1391;46.742;11.636;2022-10-16T11:19:48;21.20;44.90
2767;DHT22;1391;46.742;11.636;2022-10-16T11:22:22;21.20;45.50
2767;DHT22;1391;46.742;11.636;2022-10-16T11:24:54;21.80;44.10
2767;DHT22;1391;46.742;11.636;2022-10-16T11:27:37;21.20;44.60
2767;DHT22;1391;46.742;11.636;2022-10-16T11:30:15;22.20;47.40
2767;DHT22;1391;46.742;11.636;2022-10-16T11:32:55;22.80;44.00
2767;DHT22;1391;46.742;11.636;2022-10-16T11:35:39;22.70;52.10
2767;DHT22;1391;46.742;11.636;2022-10-16T11:38:14;22.70;44.00
2767;DHT22;1391;46.742;11.636;2022-10-16T11:40:49;21.80;42.20
2767;DHT22;1391;46.742;11.636;2022-10-16T11:43:24;21.10;42.60
2767;DHT22;1391;46.742;11.636;2022-10-16T11:45:55;22.00;47.80
2767;DHT22;1391;46.742;11.636;2022-10-16T11:48:31;22.30;46.00
2767;DHT22;1391;46.742;11.636;2022-10-16T11:51:06;22.10;44.20
2767;DHT22;1391;46.742;11.636;2022-10-16T11:53:45;22.20;43.90
2767;DHT22;1391;46.742;11.636;2022-10-16T11:56:17;22.80;43.20
2767;DHT22;1391;46.742;11.636;2022-10-16T11:58:53;22.90;45.70
2767;DHT22;1391;46.742;11.636;2022-10-16T12:01:30;23.00;44.20
2767;DHT22;1391;46.742;11.636;2022-10-16T12:04:11;22.80;46.30
2767;DHT22;1391;46.742;11.636;2022-10-16T12:06:45;22.80;43.00
2767;DHT22;1391;46.742;11.636;2022-10-16T12:09:19;22.80;43.80
2767;DHT22;1391;46.742;11.636;2022-10-16T12:11:48;22.20;42.90
2767;DHT22;1391;46.742;11.636;2022-10-16T12:14:22;22.10;44.60
2767;DHT22;1391;46.742;11.636;2022-10-16T12:17:02;21.90;44.50
2767;DHT22;1391;46.742;11.636;2022-10-16T12:19:33;22.00;44.40
2767;DHT22;1391;46.742;11.636;2022-10-16T12:22:02;22.10;50.10
2767;DHT22;1391;46.742;11.636;2022-10-16T12:24:34;21.90;46.90
2767;DHT22;1391;46.742;11.636;2022-10-16T12:27:04;21.10;44.40
2767;DHT22;1391;46.742;11.636;2022-10-16T12:29:36;21.40;44.10
2767;DHT22;1391;46.742;11.636;2022-10-16T12:32:06;20.50;45.90
2767;DHT22;1391;46.742;11.636;2022-10-16T12:34:51;21.00;45.70
2767;DHT22;1391;46.742;11.636;2022-10-16T12:37:22;21.00;49.60
2767;DHT22;1391;46.742;11.636;2022-10-16T12:39:53;20.40;48.70
2767;DHT22;1391;46.742;11.636;2022-10-16T12:42:32;20.70;49.80
2767;DHT22;1391;46.742;11.636;2022-10-16T12:45:22;21.20;51.80
2767;DHT22;1391;46.742;11.636;2022-10-16T12:47:56;20.50;50.20
2767;DHT22;1391;46.742;11.636;2022-10-16T12:50:32;21.20;52.40
2767;DHT22;1391;46.742;11.636;2022-10-16T12:53:04;20.30;52.10
2767;DHT22;1391;46.742;11.636;2022-10-16T12:55:54;20.50;49.50
2767;DHT22;1391;46.742;11.636;2022-10-16T12:58:59;20.50;52.60
2767;DHT22;1391;46.742;11.636;2022-10-16T13:01:40;20.50;50.20
2767;DHT22;1391;46.742;11.636;2022-10-16T13:07:55;20.40;51.80
2767;DHT22;1391;46.742;11.636;2022-10-16T13:10:33;20.70;53.00
2767;DHT22;1391;46.742;11.636;2022-10-16T13:13:16;20.30;54.60
2767;DHT22;1391;46.742;11.636;2022-10-16T13:15:58;19.80;56.90
2767;DHT22;1391;46.742;11.636;2022-10-16T13:18:41;19.80;57.70
2767;DHT22;1391;46.742;11.636;2022-10-16T13:21:22;19.80;58.80
2767;DHT22;1391;46.742;11.636;2022-10-16T13:24:04;19.80;57.20
2767;DHT22;1391;46.742;11.636;2022-10-16T13:26:42;19.80;58.50
2767;DHT22;1391;46.742;11.636;2022-10-16T13:29:13;19.80;60.00
2767;DHT22;1391;46.742;11.636;2022-10-16T13:31:43;19.70;60.10
2767;DHT22;1391;46.742;11.636;2022-10-16T13:34:15;19.70;60.40
2767;DHT22;1391;46.742;11.636;2022-10-16T13:36:46;19.60;58.90
2767;DHT22;1391;46.742;11.636;2022-10-16T13:39:22;19.70;59.60
2767;DHT22;1391;46.742;11.636;2022-10-16T13:42:06;19.20;61.70
2767;DHT22;1391;46.742;11.636;2022-10-16T13:44:42;19.10;62.50
2767;DHT22;1391;46.742;11.636;2022-10-16T13:47:16;19.00;62.40
2767;DHT22;1391;46.742;11.636;2022-10-16T13:49:45;19.10;64.10
2767;DHT22;1391;46.742;11.636;2022-10-16T13:52:18;19.00;65.60
2767;DHT22;1391;46.742;11.636;2022-10-16T13:54:47;19.10;63.80
2767;DHT22;1391;46.742;11.636;2022-10-16T13:57:15;18.90;62.90
2767;DHT22;1391;46.742;11.636;2022-10-16T13:59:44;19.10;62.10
2767;DHT22;1391;46.742;11.636;2022-10-16T14:02:19;19.10;63.10
2767;DHT22;1391;46.742;11.636;2022-10-16T14:04:51;19.10;64.00
2767;DHT22;1391;46.742;11.636;2022-10-16T14:07:23;19.20;64.60
2767;DHT22;1391;46.742;11.636;2022-10-16T14:09:54;19.00;64.10
2767;DHT22;1391;46.742;11.636;2022-10-16T14:12:22;19.20;64.10
2767;DHT22;1391;46.742;11.636;2022-10-16T14:14:53;19.00;65.90
2767;DHT22;1391;46.742;11.636;2022-10-16T14:17:23;18.60;65.30
2767;DHT22;1391;46.742;11.636;2022-10-16T14:19:54;18.50;66.60
2767;DHT22;1391;46.742;11.636;2022-10-16T14:22:29;18.40;67.90
2767;DHT22;1391;46.742;11.636;2022-10-16T14:24:59;18.50;67.60
2767;DHT22;1391;46.742;11.636;2022-10-16T14:27:33;18.50;67.50
2767;DHT22;1391;46.742;11.636;2022-10-16T14:30:12;18.40;67.80
2767;DHT22;1391;46.742;11.636;2022-10-16T14:32:41;17.80;70.40
2767;DHT22;1391;46.742;11.636;2022-10-16T14:35:27;17.90;68.30
2767;DHT22;1391;46.742;11.636;2022-10-16T14:37:57;17.70;70.70
2767;DHT22;1391;46.742;11.636;2022-10-16T14:40:29;17.60;71.00
2767;DHT22;1391;46.742;11.636;2022-10-16T14:42:58;17.90;72.30
2767;DHT22;1391;46.742;11.636;2022-10-16T14:45:28;17.60;71.30
2767;DHT22;1391;46.742;11.636;2022-10-16T14:47:58;17.50;73.00
2767;DHT22;1391;46.742;11.636;2022-10-16T14:50:28;17.70;71.90
2767;DHT22;1391;46.742;11.636;2022-10-16T14:52:55;17.30;71.80
2767;DHT22;1391;46.742;11.636;2022-10-16T14:55:23;17.40;71.70
2767;DHT22;1391;46.742;11.636;2022-10-16T14:57:52;17.40;72.10
2767;DHT22;1391;46.742;11.636;2022-10-16T15:00:22;17.40;72.50
2767;DHT22;1391;46.742;11.636;2022-10-16T15:02:50;17.20;72.40
2767;DHT22;1391;46.742;11.636;2022-10-16T15:05:20;17.40;73.20
2767;DHT22;1391;46.742;11.636;2022-10-16T15:07:50;17.20;73.30
2767;DHT22;1391;46.742;11.636;2022-10-16T15:10:20;17.00;74.40
2767;DHT22;1391;46.742;11.636;2022-10-16T15:12:49;17.30;73.70
2767;DHT22;1391;46.742;11.636;2022-10-16T15:15:43;17.30;72.70
2767;DHT22;1391;46.742;11.636;2022-10-16T15:18:12;17.00;73.30
2767;DHT22;1391;46.742;11.636;2022-10-16T15:20:48;17.20;75.60
2767;DHT22;1391;46.742;11.636;2022-10-16T15:23:19;17.30;74.40
2767;DHT22;1391;46.742;11.636;2022-10-16T15:25:49;16.60;75.90
2767;DHT22;1391;46.742;11.636;2022-10-16T15:28:18;16.80;78.60
2767;DHT22;1391;46.742;11.636;2022-10-16T15:30:50;16.70;81.40
2767;DHT22;1391;46.742;11.636;2022-10-16T15:33:20;16.60;80.10
2767;DHT22;1391;46.742;11.636;2022-10-16T15:35:50;16.30;79.50
2767;DHT22;1391;46.742;11.636;2022-10-16T15:38:21;16.30;81.50
2767;DHT22;1391;46.742;11.636;2022-10-16T15:40:50;16.10;80.60
2767;DHT22;1391;46.742;11.636;2022-10-16T15:43:18;16.40;80.80
2767;DHT22;1391;46.742;11.636;2022-10-16T15:45:58;15.90;81.20
2767;DHT22;1391;46.742;11.636;2022-10-16T15:48:27;16.20;82.70
2767;DHT22;1391;46.742;11.636;2022-10-16T15:50:55;15.90;82.80
2767;DHT22;1391;46.742;11.636;2022-10-16T15:53:22;15.90;83.00
2767;DHT22;1391;46.742;11.636;2022-10-16T15:55:49;16.20;84.10
2767;DHT22;1391;46.742;11.636;2022-10-16T15:58:17;15.80;83.70
2767;DHT22;1391;46.742;11.636;2022-10-16T16:00:44;15.40;86.30
2767;DHT22;1391;46.742;11.636;2022-10-16T16:03:13;15.50;87.70
2767;DHT22;1391;46.742;11.636;2022-10-16T16:05:41;15.40;87.50
2767;DHT22;1391;46.742;11.636;2022-10-16T16:08:08;15.70;89.30
2767;DHT22;1391;46.742;11.636;2022-10-16T16:10:36;15.30;89.40
2767;DHT22;1391;46.742;11.636;2022-10-16T16:13:04;15.30;90.40
2767;DHT22;1391;46.742;11.636;2022-10-16T16:15:33;14.80;90.90
2767;DHT22;1391;46.742;11.636;2022-10-16T16:18:01;14.90;91.70
2767;DHT22;1391;46.742;11.636;2022-10-16T16:20:32;15.10;92.30